Senkomamaru — JD2515 — position and weather

sailwx.info

Track history (hours):
 
Tides and Currents Weather Stations Pressure Air Temp Water Temp Dewpoint Dewpoint Depression Visibility Wind Speed Wind Dir Waves Ship Positions

Senkomamaru

Last reported at 2018-Feb-19 00:51 UTC. Time now 2018-Feb-19 03:59 UTC.
Position N 34°03' E 131°48'.

Length 76 m; draft 4.2 m.

MMSI: 431000376.

Date/timePositionNaut miles runAvg speedWind from/ knotsBaromVisibWave heightAir tempDewpointWater temp
2018-Feb-19 00:51N 34°03' E 131°48'0 0.0
2018-Feb-19 00:15N 34°03' E 131°48'0 0.0
2018-Feb-18 23:57N 34°03' E 131°48'0 0.0
2018-Feb-18 23:27N 34°03' E 131°48'0 0.0
2018-Feb-17 21:52N 34°03' E 131°48'1 2.1
2018-Feb-17 21:27N 34°02' E 131°46'0 0.0
2018-Feb-17 16:55N 34°02' E 131°47'0 0.0
2018-Feb-17 15:43N 34°02' E 131°47'0 0.1
2018-Feb-17 15:13N 34°02' E 131°46'0 0.0
2018-Feb-17 13:19N 34°02' E 131°47'0 0.1
2018-Feb-17 12:19N 34°03' E 131°47'1 2.9
2018-Feb-17 12:01N 34°02' E 131°46'510.5
2018-Feb-17 11:30N 33°56' E 131°47'813.3
2018-Feb-17 10:54N 33°52' E 131°55'613.3
2018-Feb-17 10:25N 33°47' E 132°00'911.4
2018-Feb-17 09:39N 33°49' E 132°11'312.4
2018-Feb-17 09:22N 33°50' E 132°15'2112.5
2018-Feb-17 07:42N 34°00' E 132°36'313.7
2018-Feb-17 07:30N 34°02' E 132°39'9311.9
2018-Feb-16 23:43N 34°19' E 134°30'312.6
2018-Feb-16 23:30N 34°18' E 134°32'712.3
2018-Feb-16 22:58N 34°14' E 134°39'613.2
2018-Feb-16 22:30N 34°09' E 134°44'612.2
2018-Feb-16 22:00N 34°04' E 134°48'612.4
2018-Feb-16 21:30N 33°59' E 134°52'713.1
2018-Feb-16 21:00N 33°54' E 134°57'712.9
2018-Feb-16 20:30N 33°49' E 135°01'10810.1
2018-Feb-16 09:50N 34°33' E 137°00'712.8
2018-Feb-16 09:18N 34°38' E 136°54'412.9
2018-Feb-16 09:00N 34°40' E 136°50'713.1
2018-Feb-16 08:30N 34°46' E 136°47'613.0
2018-Feb-16 08:00N 34°52' E 136°44'713.0
2018-Feb-16 07:30N 34°58' E 136°43'3 5.8
2018-Feb-16 07:00N 34°60' E 136°40'0 0.0
2018-Feb-16 06:26N 34°60' E 136°40'0 0.0
2018-Feb-16 05:56N 34°60' E 136°40'3 6.2
2018-Feb-16 05:30N 34°59' E 136°43'713.1
2018-Feb-16 05:00N 34°52' E 136°45'612.8
2018-Feb-16 04:30N 34°46' E 136°48'612.8
2018-Feb-16 04:00N 34°42' E 136°54'612.7
2018-Feb-16 03:30N 34°39' E 137°00'813.1
2018-Feb-16 02:54N 34°42' E 137°09'6 1.4
2018-Feb-15 22:50N 34°44' E 137°16'3 9.6
2018-Feb-15 22:30N 34°43' E 137°12'0 0.0
2018-Feb-15 18:11N 34°43' E 137°12'0 0.0
2018-Feb-15 15:41N 34°43' E 137°12'0 0.0
2018-Feb-15 15:29N 34°43' E 137°12'0 0.0
2018-Feb-15 11:06N 34°43' E 137°12'1 8.6
2018-Feb-15 10:58N 34°42' E 137°11'612.0
2018-Feb-15 10:29N 34°40' E 137°04'511.2
2018-Feb-15 10:00N 34°37' E 136°59'9 9.2
2018-Feb-15 09:02N 34°34' E 137°09'111.2
2018-Feb-15 09:00N 34°34' E 137°10'712.3
2018-Feb-15 08:27N 34°35' E 137°18'5711.2
2018-Feb-15 03:21N 34°34' E 138°27'4 9.9
2018-Feb-15 02:54N 34°35' E 138°32'1410.4
2018-Feb-15 01:36N 34°35' E 138°48'1 9.7
2018-Feb-15 01:30N 34°35' E 138°50'5 9.3
2018-Feb-15 01:00N 34°36' E 138°55'10 0.9
2018-Feb-14 13:50N 34°44' E 139°02'510.5
2018-Feb-14 13:23N 34°47' E 139°06'6 9.6
2018-Feb-14 12:44N 34°51' E 139°12'4 9.5
2018-Feb-14 12:19N 34°54' E 139°15'3 9.4
2018-Feb-14 11:58N 34°55' E 139°19'4 8.3
2018-Feb-14 11:26N 34°57' E 139°24'4 8.2
2018-Feb-14 11:00N 34°59' E 139°27'4 7.4
2018-Feb-14 10:30N 35°01' E 139°31'4 8.8
2018-Feb-14 10:01N 35°03' E 139°36'5 9.9
2018-Feb-14 09:28N 35°06' E 139°41'510.1
2018-Feb-14 09:00N 35°10' E 139°45'510.5
2018-Feb-14 08:30N 35°15' E 139°46'612.3
2018-Feb-14 08:00N 35°20' E 139°42'511.1
2018-Feb-14 07:31N 35°26' E 139°45'611.3
2018-Feb-14 07:00N 35°29' E 139°50'611.4
2018-Feb-14 06:30N 35°30' E 139°57'4 8.0
2018-Feb-14 06:00N 35°30' E 140°02'0 0.0
2018-Feb-14 05:29N 35°30' E 140°02'0 0.0
2018-Feb-14 04:58N 35°30' E 140°02'0 0.0
2018-Feb-13 23:08N 35°30' E 140°02'0 0.1
2018-Feb-13 22:48N 35°30' E 140°02'1 3.0
2018-Feb-13 22:30N 35°30' E 140°01'1 2.8
2018-Feb-13 22:00N 35°32' E 140°01'3 7.0
2018-Feb-13 21:30N 35°33' E 140°05'0 0.8
2018-Feb-13 20:55N 35°32' E 140°06'0 0.0
2018-Feb-13 20:25N 35°32' E 140°06'0 0.0
2018-Feb-13 19:55N 35°32' E 140°06'0 0.0
2018-Feb-13 19:07N 35°32' E 140°06'0 0.0
2018-Feb-13 18:55N 35°32' E 140°06'0 0.0
2018-Feb-13 18:07N 35°32' E 140°06'0 0.0
2018-Feb-13 17:49N 35°32' E 140°06'0 0.0
2018-Feb-13 17:25N 35°32' E 140°06'0 0.0
2018-Feb-13 16:49N 35°32' E 140°06'0 0.0
2018-Feb-13 15:43N 35°32' E 140°06'0 0.0
2018-Feb-13 15:25N 35°32' E 140°06'0 0.0
2018-Feb-13 14:55N 35°32' E 140°06'0 0.0
2018-Feb-13 11:37N 35°32' E 140°06'0 0.0
2018-Feb-13 11:25N 35°32' E 140°06'0 0.0
2018-Feb-13 10:49N 35°32' E 140°06'0 0.0
2018-Feb-13 10:25N 35°32' E 140°06'0 0.0
2018-Feb-13 09:55N 35°32' E 140°06'0 0.0
2018-Feb-13 09:25N 35°32' E 140°06'0 0.0
2018-Feb-13 08:55N 35°32' E 140°06'0 0.0
2018-Feb-13 08:09N 35°32' E 140°06'0 0.0
2018-Feb-13 07:39N 35°32' E 140°06'0 0.0
2018-Feb-13 07:27N 35°32' E 140°06'0 0.0
2018-Feb-13 06:57N 35°32' E 140°06'0 0.0
2018-Feb-13 06:27N 35°32' E 140°06'0 0.0
2018-Feb-13 04:21N 35°32' E 140°06'0 0.0
2018-Feb-13 02:45N 35°32' E 140°06'0 0.0
2018-Feb-13 02:15N 35°32' E 140°06'0 0.0
2018-Feb-13 01:45N 35°32' E 140°06'0 0.0
2018-Feb-13 00:29N 35°32' E 140°06'0 0.0
2018-Feb-12 23:59N 35°32' E 140°06'0 0.0
2018-Feb-12 23:29N 35°32' E 140°06'0 0.0
2018-Feb-12 22:53N 35°32' E 140°06'0 0.0
2018-Feb-12 22:23N 35°32' E 140°06'0 0.0
2018-Feb-12 21:59N 35°32' E 140°06'0 0.0
2018-Feb-12 21:29N 35°32' E 140°06'0 0.0
2018-Feb-12 20:47N 35°32' E 140°06'0 0.0
2018-Feb-12 20:23N 35°32' E 140°06'0 0.0
2018-Feb-12 19:53N 35°32' E 140°06'0 0.0
2018-Feb-12 18:35N 35°32' E 140°06'0 0.0
2018-Feb-12 18:29N 35°32' E 140°06'0 0.0
2018-Feb-12 17:59N 35°32' E 140°06'0 0.0
2018-Feb-12 14:53N 35°32' E 140°06'0 0.0
2018-Feb-12 11:35N 35°32' E 140°06'0 0.1
2018-Feb-12 11:29N 35°32' E 140°06'0 0.0
2018-Feb-12 10:11N 35°32' E 140°06'0 0.0
2018-Feb-12 09:59N 35°32' E 140°06'0 0.0
2018-Feb-12 09:23N 35°32' E 140°06'0 0.0
2018-Feb-12 05:41N 35°32' E 140°06'0 0.0
2018-Feb-12 05:29N 35°32' E 140°06'0 0.0
2018-Feb-12 04:59N 35°32' E 140°06'0 0.0
2018-Feb-12 03:59N 35°32' E 140°06'0 0.0
2018-Feb-12 01:08N 35°32' E 140°06'1 2.6
2018-Feb-12 00:56N 35°33' E 140°05'510.3
2018-Feb-12 00:29N 35°31' E 139°60'612.6
2018-Feb-12 00:00N 35°29' E 139°53'612.7
2018-Feb-11 23:30N 35°25' E 139°47'612.4
2018-Feb-11 23:01N 35°19' E 139°44'611.5
2018-Feb-11 22:30N 35°14' E 139°47'612.2
2018-Feb-11 22:01N 35°08' E 139°46'1011.8
2018-Feb-11 21:08N 34°60' E 139°38'212.2
2018-Feb-11 20:59N 34°59' E 139°37'713.1
2018-Feb-11 20:26N 34°55' E 139°29'714.2
2018-Feb-11 19:58N 34°51' E 139°22'714.0
2018-Feb-11 19:28N 34°47' E 139°16'914.0
2018-Feb-11 18:51N 34°41' E 139°07'412.9
2018-Feb-11 18:30N 34°39' E 139°03'611.8
2018-Feb-11 18:00N 34°35' E 138°57'612.4
2018-Feb-11 17:30N 34°33' E 138°50'1012.4
2018-Feb-11 16:41N 34°33' E 138°38'512.2
2018-Feb-11 16:17N 34°33' E 138°32'312.3
2018-Feb-11 16:00N 34°32' E 138°28'712.3
2018-Feb-11 15:26N 34°32' E 138°19'16810.7
2018-Feb-10 23:49N 33°51' E 135°03'412.9
2018-Feb-10 23:30N 33°54' E 134°60'612.6
2018-Feb-10 23:00N 33°58' E 134°55'612.5
2018-Feb-10 22:30N 34°03' E 134°50'612.8
2018-Feb-10 22:00N 34°08' E 134°45'612.3
2018-Feb-10 21:30N 34°13' E 134°40'612.1
2018-Feb-10 21:00N 34°16' E 134°34'612.5
2018-Feb-10 20:30N 34°19' E 134°27'612.5
2018-Feb-10 19:59N 34°21' E 134°20'8110.4
2018-Feb-10 12:16N 34°01' E 132°46'311.9
2018-Feb-10 12:00N 33°58' E 132°44'611.8
2018-Feb-10 11:29N 33°54' E 132°38'611.9
2018-Feb-10 11:00N 33°52' E 132°32'612.2
2018-Feb-10 10:30N 33°50' E 132°25'712.1
2018-Feb-10 09:55N 33°50' E 132°16'611.9
2018-Feb-10 09:22N 33°48' E 132°09'412.3
2018-Feb-10 09:01N 33°46' E 132°04'712.2
2018-Feb-10 08:28N 33°49' E 131°57'812.7
2018-Feb-10 07:52N 33°54' E 131°50'512.5
2018-Feb-10 07:30N 33°57' E 131°46'510.0
2018-Feb-10 06:57N 34°03' E 131°47'0 0.0
2018-Feb-10 01:53N 34°03' E 131°48'0 0.0
2018-Feb-10 01:17N 34°03' E 131°48'0 0.0
2018-Feb-09 22:28N 34°03' E 131°48'  
Track history (hours):
 
Tides and Currents Weather Stations Pressure Air Temp Water Temp Dewpoint Dewpoint Depression Visibility Wind Speed Wind Dir Waves Ship Positions

Senkomamaru

Last reported at 2018-Feb-19 00:51 UTC. Time now 2018-Feb-19 03:59 UTC.
Position N 34°03' E 131°48'.

Length 76 m; draft 4.2 m.

MMSI: 431000376.

Date/timePositionNaut miles runAvg speedWind from/ knotsBaromVisibWave heightAir tempDewpointWater temp
2018-Feb-19 00:51N 34°03' E 131°48'0 0.0
2018-Feb-19 00:15N 34°03' E 131°48'0 0.0
2018-Feb-18 23:57N 34°03' E 131°48'0 0.0
2018-Feb-18 23:27N 34°03' E 131°48'0 0.0
2018-Feb-17 21:52N 34°03' E 131°48'1 2.1
2018-Feb-17 21:27N 34°02' E 131°46'0 0.0
2018-Feb-17 16:55N 34°02' E 131°47'0 0.0
2018-Feb-17 15:43N 34°02' E 131°47'0 0.1
2018-Feb-17 15:13N 34°02' E 131°46'0 0.0
2018-Feb-17 13:19N 34°02' E 131°47'0 0.1
2018-Feb-17 12:19N 34°03' E 131°47'1 2.9
2018-Feb-17 12:01N 34°02' E 131°46'510.5
2018-Feb-17 11:30N 33°56' E 131°47'813.3
2018-Feb-17 10:54N 33°52' E 131°55'613.3
2018-Feb-17 10:25N 33°47' E 132°00'911.4
2018-Feb-17 09:39N 33°49' E 132°11'312.4
2018-Feb-17 09:22N 33°50' E 132°15'2112.5
2018-Feb-17 07:42N 34°00' E 132°36'313.7
2018-Feb-17 07:30N 34°02' E 132°39'9311.9
2018-Feb-16 23:43N 34°19' E 134°30'312.6
2018-Feb-16 23:30N 34°18' E 134°32'712.3
2018-Feb-16 22:58N 34°14' E 134°39'613.2
2018-Feb-16 22:30N 34°09' E 134°44'612.2
2018-Feb-16 22:00N 34°04' E 134°48'612.4
2018-Feb-16 21:30N 33°59' E 134°52'713.1
2018-Feb-16 21:00N 33°54' E 134°57'712.9
2018-Feb-16 20:30N 33°49' E 135°01'10810.1
2018-Feb-16 09:50N 34°33' E 137°00'712.8
2018-Feb-16 09:18N 34°38' E 136°54'412.9
2018-Feb-16 09:00N 34°40' E 136°50'713.1
2018-Feb-16 08:30N 34°46' E 136°47'613.0
2018-Feb-16 08:00N 34°52' E 136°44'713.0
2018-Feb-16 07:30N 34°58' E 136°43'3 5.8
2018-Feb-16 07:00N 34°60' E 136°40'0 0.0
2018-Feb-16 06:26N 34°60' E 136°40'0 0.0
2018-Feb-16 05:56N 34°60' E 136°40'3 6.2
2018-Feb-16 05:30N 34°59' E 136°43'713.1
2018-Feb-16 05:00N 34°52' E 136°45'612.8
2018-Feb-16 04:30N 34°46' E 136°48'612.8
2018-Feb-16 04:00N 34°42' E 136°54'612.7
2018-Feb-16 03:30N 34°39' E 137°00'813.1
2018-Feb-16 02:54N 34°42' E 137°09'6 1.4
2018-Feb-15 22:50N 34°44' E 137°16'3 9.6
2018-Feb-15 22:30N 34°43' E 137°12'0 0.0
2018-Feb-15 18:11N 34°43' E 137°12'0 0.0
2018-Feb-15 15:41N 34°43' E 137°12'0 0.0
2018-Feb-15 15:29N 34°43' E 137°12'0 0.0
2018-Feb-15 11:06N 34°43' E 137°12'1 8.6
2018-Feb-15 10:58N 34°42' E 137°11'612.0
2018-Feb-15 10:29N 34°40' E 137°04'511.2
2018-Feb-15 10:00N 34°37' E 136°59'9 9.2
2018-Feb-15 09:02N 34°34' E 137°09'111.2
2018-Feb-15 09:00N 34°34' E 137°10'712.3
2018-Feb-15 08:27N 34°35' E 137°18'5711.2
2018-Feb-15 03:21N 34°34' E 138°27'4 9.9
2018-Feb-15 02:54N 34°35' E 138°32'1410.4
2018-Feb-15 01:36N 34°35' E 138°48'1 9.7
2018-Feb-15 01:30N 34°35' E 138°50'5 9.3
2018-Feb-15 01:00N 34°36' E 138°55'10 0.9
2018-Feb-14 13:50N 34°44' E 139°02'510.5
2018-Feb-14 13:23N 34°47' E 139°06'6 9.6
2018-Feb-14 12:44N 34°51' E 139°12'4 9.5
2018-Feb-14 12:19N 34°54' E 139°15'3 9.4
2018-Feb-14 11:58N 34°55' E 139°19'4 8.3
2018-Feb-14 11:26N 34°57' E 139°24'4 8.2
2018-Feb-14 11:00N 34°59' E 139°27'4 7.4
2018-Feb-14 10:30N 35°01' E 139°31'4 8.8
2018-Feb-14 10:01N 35°03' E 139°36'5 9.9
2018-Feb-14 09:28N 35°06' E 139°41'510.1
2018-Feb-14 09:00N 35°10' E 139°45'510.5
2018-Feb-14 08:30N 35°15' E 139°46'612.3
2018-Feb-14 08:00N 35°20' E 139°42'511.1
2018-Feb-14 07:31N 35°26' E 139°45'611.3
2018-Feb-14 07:00N 35°29' E 139°50'611.4
2018-Feb-14 06:30N 35°30' E 139°57'4 8.0
2018-Feb-14 06:00N 35°30' E 140°02'0 0.0
2018-Feb-14 05:29N 35°30' E 140°02'0 0.0
2018-Feb-14 04:58N 35°30' E 140°02'0 0.0
2018-Feb-13 23:08N 35°30' E 140°02'0 0.1
2018-Feb-13 22:48N 35°30' E 140°02'1 3.0
2018-Feb-13 22:30N 35°30' E 140°01'1 2.8
2018-Feb-13 22:00N 35°32' E 140°01'3 7.0
2018-Feb-13 21:30N 35°33' E 140°05'0 0.8
2018-Feb-13 20:55N 35°32' E 140°06'0 0.0
2018-Feb-13 20:25N 35°32' E 140°06'0 0.0
2018-Feb-13 19:55N 35°32' E 140°06'0 0.0
2018-Feb-13 19:07N 35°32' E 140°06'0 0.0
2018-Feb-13 18:55N 35°32' E 140°06'0 0.0
2018-Feb-13 18:07N 35°32' E 140°06'0 0.0
2018-Feb-13 17:49N 35°32' E 140°06'0 0.0
2018-Feb-13 17:25N 35°32' E 140°06'0 0.0
2018-Feb-13 16:49N 35°32' E 140°06'0 0.0
2018-Feb-13 15:43N 35°32' E 140°06'0 0.0
2018-Feb-13 15:25N 35°32' E 140°06'0 0.0
2018-Feb-13 14:55N 35°32' E 140°06'0 0.0
2018-Feb-13 11:37N 35°32' E 140°06'0 0.0
2018-Feb-13 11:25N 35°32' E 140°06'0 0.0
2018-Feb-13 10:49N 35°32' E 140°06'0 0.0
2018-Feb-13 10:25N 35°32' E 140°06'0 0.0
2018-Feb-13 09:55N 35°32' E 140°06'0 0.0
2018-Feb-13 09:25N 35°32' E 140°06'0 0.0
2018-Feb-13 08:55N 35°32' E 140°06'0 0.0
2018-Feb-13 08:09N 35°32' E 140°06'0 0.0
2018-Feb-13 07:39N 35°32' E 140°06'0 0.0
2018-Feb-13 07:27N 35°32' E 140°06'0 0.0
2018-Feb-13 06:57N 35°32' E 140°06'0 0.0
2018-Feb-13 06:27N 35°32' E 140°06'0 0.0
2018-Feb-13 04:21N 35°32' E 140°06'0 0.0
2018-Feb-13 02:45N 35°32' E 140°06'0 0.0
2018-Feb-13 02:15N 35°32' E 140°06'0 0.0
2018-Feb-13 01:45N 35°32' E 140°06'0 0.0
2018-Feb-13 00:29N 35°32' E 140°06'0 0.0
2018-Feb-12 23:59N 35°32' E 140°06'0 0.0
2018-Feb-12 23:29N 35°32' E 140°06'0 0.0
2018-Feb-12 22:53N 35°32' E 140°06'0 0.0
2018-Feb-12 22:23N 35°32' E 140°06'0 0.0
2018-Feb-12 21:59N 35°32' E 140°06'0 0.0
2018-Feb-12 21:29N 35°32' E 140°06'0 0.0
2018-Feb-12 20:47N 35°32' E 140°06'0 0.0
2018-Feb-12 20:23N 35°32' E 140°06'0 0.0
2018-Feb-12 19:53N 35°32' E 140°06'0 0.0
2018-Feb-12 18:35N 35°32' E 140°06'0 0.0
2018-Feb-12 18:29N 35°32' E 140°06'0 0.0
2018-Feb-12 17:59N 35°32' E 140°06'0 0.0
2018-Feb-12 14:53N 35°32' E 140°06'0 0.0
2018-Feb-12 11:35N 35°32' E 140°06'0 0.1
2018-Feb-12 11:29N 35°32' E 140°06'0 0.0
2018-Feb-12 10:11N 35°32' E 140°06'0 0.0
2018-Feb-12 09:59N 35°32' E 140°06'0 0.0
2018-Feb-12 09:23N 35°32' E 140°06'0 0.0
2018-Feb-12 05:41N 35°32' E 140°06'0 0.0
2018-Feb-12 05:29N 35°32' E 140°06'0 0.0
2018-Feb-12 04:59N 35°32' E 140°06'0 0.0
2018-Feb-12 03:59N 35°32' E 140°06'0 0.0
2018-Feb-12 01:08N 35°32' E 140°06'1 2.6
2018-Feb-12 00:56N 35°33' E 140°05'510.3
2018-Feb-12 00:29N 35°31' E 139°60'612.6
2018-Feb-12 00:00N 35°29' E 139°53'612.7
2018-Feb-11 23:30N 35°25' E 139°47'612.4
2018-Feb-11 23:01N 35°19' E 139°44'611.5
2018-Feb-11 22:30N 35°14' E 139°47'612.2
2018-Feb-11 22:01N 35°08' E 139°46'1011.8
2018-Feb-11 21:08N 34°60' E 139°38'212.2
2018-Feb-11 20:59N 34°59' E 139°37'713.1
2018-Feb-11 20:26N 34°55' E 139°29'714.2
2018-Feb-11 19:58N 34°51' E 139°22'714.0
2018-Feb-11 19:28N 34°47' E 139°16'914.0
2018-Feb-11 18:51N 34°41' E 139°07'412.9
2018-Feb-11 18:30N 34°39' E 139°03'611.8
2018-Feb-11 18:00N 34°35' E 138°57'612.4
2018-Feb-11 17:30N 34°33' E 138°50'1012.4
2018-Feb-11 16:41N 34°33' E 138°38'512.2
2018-Feb-11 16:17N 34°33' E 138°32'312.3
2018-Feb-11 16:00N 34°32' E 138°28'712.3
2018-Feb-11 15:26N 34°32' E 138°19'16810.7
2018-Feb-10 23:49N 33°51' E 135°03'412.9
2018-Feb-10 23:30N 33°54' E 134°60'612.6
2018-Feb-10 23:00N 33°58' E 134°55'612.5
2018-Feb-10 22:30N 34°03' E 134°50'612.8
2018-Feb-10 22:00N 34°08' E 134°45'612.3
2018-Feb-10 21:30N 34°13' E 134°40'612.1
2018-Feb-10 21:00N 34°16' E 134°34'612.5
2018-Feb-10 20:30N 34°19' E 134°27'612.5
2018-Feb-10 19:59N 34°21' E 134°20'8110.4
2018-Feb-10 12:16N 34°01' E 132°46'311.9
2018-Feb-10 12:00N 33°58' E 132°44'611.8
2018-Feb-10 11:29N 33°54' E 132°38'611.9
2018-Feb-10 11:00N 33°52' E 132°32'612.2
2018-Feb-10 10:30N 33°50' E 132°25'712.1
2018-Feb-10 09:55N 33°50' E 132°16'611.9
2018-Feb-10 09:22N 33°48' E 132°09'412.3
2018-Feb-10 09:01N 33°46' E 132°04'712.2
2018-Feb-10 08:28N 33°49' E 131°57'812.7
2018-Feb-10 07:52N 33°54' E 131°50'512.5
2018-Feb-10 07:30N 33°57' E 131°46'510.0
2018-Feb-10 06:57N 34°03' E 131°47'0 0.0
2018-Feb-10 01:53N 34°03' E 131°48'0 0.0
2018-Feb-10 01:17N 34°03' E 131°48'0 0.0
2018-Feb-09 22:28N 34°03' E 131°48'  

Dump ship's entire track history